Time;durP1;ratioP1;P1;durP2;ratioP2;P2;SDS_P1;SDS_P2;PMS_P1;PMS_P2;Temp;Humidity;BMP_temperature;BMP_pressure;BME280_temperature;BME280_humidity;BME280_pressure;Samples;Min_cycle;Max_cycle;Signal;HPM_P1;HPM_P2
2022/06/21 00:00:27;;;;;;;3.80;1.60;;;12.80;99.90;;;;;;5121837;27;20208;-94
2022/06/21 00:03:21;;;;;;;1.57;1.47;;;12.70;99.90;;;;;;5089199;28;20188;-94
2022/06/21 00:05:49;;;;;;;5.93;1.73;;;12.70;99.90;;;;;;5087390;28;20239;-92
2022/06/21 00:08:18;;;;;;;7.50;2.33;;;12.70;99.90;;;;;;5088437;28;20252;-93
2022/06/21 00:10:45;;;;;;;3.20;1.33;;;12.60;99.90;;;;;;5088340;28;20376;-94
2022/06/21 00:13:13;;;;;;;4.10;2.47;;;12.60;99.90;;;;;;5096697;28;20223;-95
2022/06/21 00:15:40;;;;;;;2.00;1.90;;;12.60;99.90;;;;;;5102700;28;20220;-94
2022/06/21 00:18:11;;;;;;;1.90;1.73;;;12.60;99.90;;;;;;5087065;28;20590;-93
2022/06/21 00:20:36;;;;;;;6.40;2.70;;;12.60;99.90;;;;;;5088989;28;20184;-94
2022/06/21 00:23:02;;;;;;;3.80;2.13;;;12.60;99.90;;;;;;5104961;28;20215;-94
2022/06/21 00:25:28;;;;;;;2.03;1.80;;;12.50;99.90;;;;;;5096421;28;20303;-94
2022/06/21 00:27:55;;;;;;;3.13;2.13;;;12.50;99.90;;;;;;5080423;28;20240;-94
2022/06/21 00:30:22;;;;;;;3.23;1.70;;;12.40;99.90;;;;;;5087375;28;20212;-94
2022/06/21 00:32:51;;;;;;;2.37;1.93;;;12.40;99.90;;;;;;5088497;28;20224;-93
2022/06/21 00:35:20;;;;;;;2.83;1.90;;;12.40;99.90;;;;;;5098434;28;20219;-94
2022/06/21 00:37:47;;;;;;;5.33;2.57;;;12.40;99.90;;;;;;5124352;27;20231;-94
2022/06/21 00:40:17;;;;;;;1.53;1.43;;;12.40;99.90;;;;;;5107849;27;20239;-93
2022/06/21 00:42:46;;;;;;;4.20;1.63;;;12.40;99.90;;;;;;5107416;28;20273;-93
2022/06/21 00:45:23;;;;;;;1.50;1.37;;;12.40;99.90;;;;;;5107207;28;20212;-95
2022/06/21 00:47:52;;;;;;;9.57;1.83;;;12.40;99.90;;;;;;5107694;28;20199;-95
2022/06/21 00:50:35;;;;;;;5.83;2.00;;;12.30;99.90;;;;;;5106959;28;20230;-95
2022/06/21 00:53:21;;;;;;;1.37;1.27;;;12.30;99.90;;;;;;5123782;27;20219;-96
2022/06/21 00:55:52;;;;;;;3.40;1.73;;;12.30;99.90;;;;;;5124177;27;20230;-93
2022/06/21 00:58:20;;;;;;;1.33;1.23;;;12.30;99.90;;;;;;5107133;28;20945;-93
2022/06/21 01:01:15;;;;;;;2.50;1.73;;;12.30;99.90;;;;;;5097912;28;20224;-93
2022/06/21 01:03:45;;;;;;;1.40;1.30;;;12.20;99.90;;;;;;5106747;28;20234;-93
2022/06/21 01:06:31;;;;;;;1.90;1.37;;;12.20;99.90;;;;;;5108115;28;20188;-94
2022/06/21 01:09:11;;;;;;;4.83;2.17;;;12.20;99.90;;;;;;5108008;28;20576;-92
2022/06/21 01:11:47;;;;;;;3.27;1.70;;;12.20;99.90;;;;;;5108149;28;20223;-93
2022/06/21 01:14:14;;;;;;;1.93;1.63;;;12.10;99.90;;;;;;5106283;28;20255;-94
2022/06/21 01:16:40;;;;;;;1.60;1.50;;;12.20;99.90;;;;;;5088501;28;20223;-94
2022/06/21 01:19:38;;;;;;;1.70;1.43;;;12.10;99.90;;;;;;5107981;28;20226;-95
2022/06/21 01:22:16;;;;;;;3.57;1.87;;;12.20;99.90;;;;;;5101519;28;20210;-94
2022/06/21 01:25:05;;;;;;;2.93;1.77;;;12.20;99.90;;;;;;5107391;28;20224;-95
2022/06/21 01:27:31;;;;;;;4.80;2.13;;;12.20;99.90;;;;;;5096481;28;20227;-95
2022/06/21 01:29:57;;;;;;;3.67;2.20;;;12.30;99.90;;;;;;5108779;28;20929;-94
2022/06/21 01:32:24;;;;;;;1.33;1.23;;;12.40;99.90;;;;;;5089943;28;20219;-95
2022/06/21 01:34:49;;;;;;;3.63;1.97;;;12.40;99.90;;;;;;5107059;28;20216;-95
2022/06/21 01:37:24;;;;;;;4.50;2.03;;;12.50;99.90;;;;;;5107349;28;20231;-96
2022/06/21 01:40:20;;;;;;;2.13;1.90;;;12.50;99.90;;;;;;5123903;27;20302;-95
2022/06/21 01:42:50;;;;;;;4.20;2.33;;;12.60;99.90;;;;;;5106071;28;20306;-95
2022/06/21 01:45:21;;;;;;;2.67;2.47;;;12.60;99.90;;;;;;5107578;28;20194;-94
2022/06/21 01:47:58;;;;;;;4.67;2.00;;;12.50;99.90;;;;;;5099247;28;20568;-94
2022/06/21 01:50:24;;;;;;;2.47;2.00;;;12.50;99.90;;;;;;5098449;28;20207;-95
2022/06/21 01:52:52;;;;;;;5.87;2.30;;;12.40;99.90;;;;;;5114939;27;20223;-95
2022/06/21 01:55:34;;;;;;;2.53;2.10;;;12.40;99.90;;;;;;5106283;28;20264;-94
2022/06/21 01:58:01;;;;;;;2.60;2.20;;;12.40;99.90;;;;;;5106593;28;20266;-95
2022/06/21 02:00:31;;;;;;;5.63;2.80;;;12.40;99.90;;;;;;5106409;28;20341;-94
2022/06/21 02:03:05;;;;;;;2.77;2.10;;;12.40;99.90;;;;;;5107435;28;20241;-94
2022/06/21 02:05:37;;;;;;;3.53;2.90;;;12.40;99.90;;;;;;5106352;28;20652;-95
2022/06/21 02:08:08;;;;;;;2.90;2.50;;;12.50;99.90;;;;;;5123239;27;20787;-94
2022/06/21 02:10:40;;;;;;;5.77;2.10;;;12.50;99.90;;;;;;5097484;28;20312;-95
2022/06/21 02:13:12;;;;;;;3.40;2.33;;;12.50;99.90;;;;;;5099052;28;20227;-95
2022/06/21 02:15:46;;;;;;;2.63;2.17;;;12.50;99.90;;;;;;5106357;28;20216;-94
2022/06/21 02:18:14;;;;;;;12.63;4.23;;;12.50;99.90;;;;;;5106035;28;20217;-93
2022/06/21 02:20:48;;;;;;;8.03;3.07;;;12.50;99.90;;;;;;5097903;28;20183;-94
2022/06/21 02:23:16;;;;;;;3.37;3.07;;;12.40;99.90;;;;;;5105621;28;20231;-95
2022/06/21 02:25:43;;;;;;;4.27;2.73;;;12.40;99.90;;;;;;5106975;28;20227;-94
2022/06/21 02:28:14;;;;;;;6.97;2.63;;;12.40;99.90;;;;;;5105779;28;20276;-94
2022/06/21 02:30:42;;;;;;;5.13;2.97;;;12.40;99.90;;;;;;5122928;28;20249;-94
2022/06/21 02:33:15;;;;;;;8.20;3.47;;;12.30;99.90;;;;;;5105575;28;20188;-94
2022/06/21 02:35:51;;;;;;;4.40;2.03;;;12.30;99.90;;;;;;5107452;28;20214;-94
2022/06/21 02:38:25;;;;;;;3.17;2.43;;;12.30;99.90;;;;;;5105861;28;20223;-93
2022/06/21 02:41:02;;;;;;;2.70;2.50;;;12.20;99.90;;;;;;5107060;28;20219;-94
2022/06/21 02:43:34;;;;;;;3.63;2.60;;;11.90;99.90;;;;;;5106687;28;20605;-93
2022/06/21 02:46:26;;;;;;;2.83;2.13;;;11.80;99.90;;;;;;5105456;28;20219;-94
2022/06/21 02:49:00;;;;;;;4.73;2.13;;;11.60;99.90;;;;;;5122336;28;20697;-95
2022/06/21 02:51:32;;;;;;;3.33;3.00;;;11.60;99.90;;;;;;5105957;28;20219;-95
2022/06/21 02:54:22;;;;;;;5.90;2.53;;;11.70;99.90;;;;;;5106906;28;20188;-92
2022/06/21 02:57:05;;;;;;;3.43;2.83;;;11.70;99.90;;;;;;5106687;28;20208;-91
2022/06/21 02:59:35;;;;;;;6.60;3.17;;;11.80;99.90;;;;;;5106951;28;20200;-93
2022/06/21 03:02:07;;;;;;;5.50;2.87;;;11.90;99.90;;;;;;5089461;28;20266;-93
2022/06/21 03:04:43;;;;;;;12.20;4.90;;;12.00;99.90;;;;;;5086127;28;20221;-92
2022/06/21 03:07:16;;;;;;;4.87;2.77;;;12.00;99.90;;;;;;5086020;28;20224;-92
2022/06/21 03:09:42;;;;;;;8.50;4.47;;;12.10;99.90;;;;;;5086854;28;20241;-91
2022/06/21 03:12:12;;;;;;;5.80;3.73;;;12.10;99.90;;;;;;5090099;27;20196;-93
2022/06/21 03:14:38;;;;;;;4.23;2.63;;;12.10;99.90;;;;;;5109681;28;20191;-92
2022/06/21 03:17:08;;;;;;;7.13;3.57;;;12.10;99.90;;;;;;5091319;28;20220;-93
2022/06/21 03:19:36;;;;;;;6.27;3.07;;;12.10;99.90;;;;;;5088866;28;21210;-92
2022/06/21 03:22:04;;;;;;;5.97;3.30;;;12.10;99.90;;;;;;5080295;28;20224;-92
2022/06/21 03:24:32;;;;;;;5.83;3.77;;;12.20;99.90;;;;;;5088517;28;20550;-92
2022/06/21 03:27:33;;;;;;;9.40;4.83;;;12.30;99.90;;;;;;5089517;28;20208;-93
2022/06/21 03:30:00;;;;;;;4.40;2.70;;;12.30;99.90;;;;;;5082397;28;20221;-93
2022/06/21 03:32:28;;;;;;;8.37;4.30;;;12.30;99.90;;;;;;5087948;28;20200;-92
2022/06/21 03:34:54;;;;;;;6.00;3.33;;;12.30;99.90;;;;;;5088520;28;20312;-92
2022/06/21 03:37:20;;;;;;;4.27;3.23;;;12.40;99.90;;;;;;5087416;28;20216;-92
2022/06/21 03:42:37;;;;;;;3.77;3.37;;;12.60;99.90;;;;;;5093749;28;20208;-92
2022/06/21 03:45:10;;;;;;;4.73;3.20;;;12.60;99.90;;;;;;5107946;28;20195;-93
2022/06/21 03:47:42;;;;;;;4.67;3.10;;;12.60;99.90;;;;;;5089265;28;20315;-92
2022/06/21 03:50:17;;;;;;;3.87;3.43;;;12.50;99.90;;;;;;5089263;28;20875;-93
2022/06/21 03:53:10;;;;;;;3.60;2.80;;;12.50;99.90;;;;;;5088976;28;20216;-92
2022/06/21 03:55:54;;;;;;;3.43;2.83;;;12.40;99.90;;;;;;5100164;28;20219;-93
2022/06/21 03:58:44;;;;;;;4.07;3.67;;;12.50;99.90;;;;;;5094014;28;20223;-92
2022/06/21 04:01:24;;;;;;;11.60;3.67;;;12.50;99.90;;;;;;5088926;28;20232;-92
2022/06/21 04:04:10;;;;;;;8.40;3.93;;;12.60;99.90;;;;;;5091720;28;20250;-94
2022/06/21 04:06:46;;;;;;;9.53;3.90;;;12.70;99.90;;;;;;5094133;28;20212;-94
2022/06/21 04:09:37;;;;;;;5.80;4.47;;;12.80;99.90;;;;;;5087459;28;20244;-94
2022/06/21 04:12:15;;;;;;;5.83;3.43;;;12.70;99.90;;;;;;5087215;28;20189;-93
2022/06/21 04:14:55;;;;;;;7.13;3.30;;;12.70;99.90;;;;;;5087798;28;20200;-94
2022/06/21 04:17:36;;;;;;;7.43;3.37;;;12.70;99.90;;;;;;5087551;28;20220;-96
2022/06/21 04:20:15;;;;;;;9.20;3.03;;;12.70;99.90;;;;;;5087654;28;20220;-96
2022/06/21 04:22:44;;;;;;;5.73;3.20;;;12.70;99.90;;;;;;5089265;28;20220;-96
2022/06/21 04:25:19;;;;;;;6.33;3.10;;;12.80;99.90;;;;;;5091723;28;20216;-96
2022/06/21 04:27:50;;;;;;;5.90;3.03;;;12.80;99.90;;;;;;5090245;28;20330;-96
2022/06/21 04:30:23;;;;;;;4.63;3.67;;;12.80;99.90;;;;;;5090290;28;20196;-96
2022/06/21 04:33:03;;;;;;;7.83;3.17;;;12.80;99.90;;;;;;5088291;28;20262;-95
2022/06/21 04:35:35;;;;;;;4.67;3.23;;;13.00;99.90;;;;;;5088536;28;20208;-94
2022/06/21 04:38:13;;;;;;;5.23;3.37;;;13.00;99.90;;;;;;5103466;28;20296;-94
2022/06/21 04:40:56;;;;;;;6.67;3.43;;;13.20;99.90;;;;;;5087023;28;20754;-94
2022/06/21 04:43:31;;;;;;;7.97;3.87;;;13.20;99.90;;;;;;5087605;28;20244;-95
2022/06/21 04:46:05;;;;;;;5.23;2.97;;;13.20;99.90;;;;;;5088080;28;21124;-95
2022/06/21 04:48:39;;;;;;;6.73;4.53;;;13.30;99.90;;;;;;5087726;28;20270;-93
2022/06/21 04:51:22;;;;;;;6.90;4.30;;;13.40;99.90;;;;;;5086967;28;20273;-91
2022/06/21 04:54:27;;;;;;;6.03;4.03;;;13.60;99.90;;;;;;5085946;28;20295;-92
2022/06/21 04:57:02;;;;;;;7.00;4.27;;;13.70;99.90;;;;;;5102623;28;20208;-92
2022/06/21 04:59:37;;;;;;;5.17;3.63;;;13.80;99.90;;;;;;5086753;28;20228;-92
2022/06/21 05:02:04;;;;;;;5.33;4.13;;;14.00;99.90;;;;;;5087103;28;20217;-93
2022/06/21 05:04:30;;;;;;;7.80;3.40;;;14.20;99.90;;;;;;5087620;28;20226;-93
2022/06/21 05:06:58;;;;;;;4.40;3.17;;;14.40;99.90;;;;;;5087667;28;20311;-93
2022/06/21 05:09:28;;;;;;;4.33;2.87;;;14.40;99.90;;;;;;5085707;28;20246;-91
2022/06/21 05:12:05;;;;;;;3.77;3.27;;;14.50;99.90;;;;;;5106587;28;20192;-94
2022/06/21 05:14:46;;;;;;;4.30;3.13;;;14.60;99.90;;;;;;5086631;28;20249;-94
2022/06/21 05:17:16;;;;;;;8.10;3.57;;;16.00;99.90;;;;;;5085360;28;20231;-94
2022/06/21 05:19:46;;;;;;;5.20;3.07;;;18.30;99.90;;;;;;5076557;28;20216;-94
2022/06/21 05:22:21;;;;;;;3.40;2.73;;;18.60;99.90;;;;;;5085905;28;20212;-94
2022/06/21 05:24:48;;;;;;;7.33;3.03;;;18.40;99.90;;;;;;5086533;28;20234;-95
2022/06/21 05:27:41;;;;;;;3.70;2.97;;;17.40;99.90;;;;;;5087092;28;20217;-93
2022/06/21 05:30:30;;;;;;;5.40;2.60;;;16.70;99.90;;;;;;5120276;27;20229;-94
2022/06/21 05:32:59;;;;;;;4.23;2.50;;;16.40;99.90;;;;;;5086637;28;20208;-95
2022/06/21 05:35:28;;;;;;;6.83;2.53;;;16.10;99.90;;;;;;5086397;28;20724;-93
2022/06/21 05:38:04;;;;;;;4.60;2.47;;;15.90;99.90;;;;;;5085349;28;20220;-94
2022/06/21 05:40:48;;;;;;;8.83;2.73;;;15.70;99.90;;;;;;5086420;28;20303;-94
2022/06/21 05:43:18;;;;;;;5.47;3.30;;;15.60;99.90;;;;;;5086711;28;20447;-95
2022/06/21 05:46:02;;;;;;;3.87;2.50;;;15.60;99.90;;;;;;5086248;28;20386;-93
2022/06/21 05:48:34;;;;;;;4.53;3.00;;;15.50;99.90;;;;;;5086401;28;20221;-93
2022/06/21 05:51:03;;;;;;;5.77;3.30;;;15.60;99.90;;;;;;5102163;28;20185;-92
2022/06/21 05:53:34;;;;;;;4.63;2.67;;;15.90;99.90;;;;;;5084329;28;20188;-94
2022/06/21 05:56:06;;;;;;;6.73;2.77;;;16.00;99.90;;;;;;5085092;28;20217;-92
2022/06/21 05:58:41;;;;;;;4.13;3.10;;;16.10;99.90;;;;;;5084345;28;20701;-91
2022/06/21 06:01:19;;;;;;;8.93;3.63;;;16.20;99.90;;;;;;5085521;28;20208;-93
2022/06/21 06:04:07;;;;;;;3.00;2.37;;;16.20;99.90;;;;;;5086558;28;20227;-92
2022/06/21 06:06:36;;;;;;;5.77;3.00;;;16.10;99.90;;;;;;5086542;28;20227;-96
2022/06/21 06:09:10;;;;;;;3.40;2.47;;;16.00;99.90;;;;;;5086677;28;20243;-94
2022/06/21 06:11:57;;;;;;;3.90;1.97;;;16.10;99.90;;;;;;5087739;28;20180;-93
2022/06/21 06:14:39;;;;;;;7.37;2.93;;;16.10;99.90;;;;;;5084943;28;20265;-94
2022/06/21 06:17:41;;;;;;;6.50;3.03;;;16.40;99.90;;;;;;5091663;28;20265;-95
2022/06/21 06:20:25;;;;;;;7.73;2.27;;;19.40;99.90;;;;;;5063390;28;20257;-96
2022/06/21 06:22:58;;;;;;;12.67;2.83;;;23.30;99.90;;;;;;5121650;28;20216;-95
2022/06/21 06:25:34;;;;;;;2.40;2.20;;;26.60;99.90;;;;;;5106068;28;20216;-93
2022/06/21 06:28:27;;;;;;;2.70;1.53;;;29.40;99.90;;;;;;5098272;28;20243;-92
2022/06/21 06:31:15;;;;;;;4.13;2.60;;;30.00;99.90;;;;;;5106429;28;20216;-91
2022/06/21 06:33:45;;;;;;;3.83;2.03;;;29.50;99.90;;;;;;5105902;28;20215;-93
2022/06/21 06:36:17;;;;;;;3.83;2.10;;;30.60;99.90;;;;;;5104335;28;20620;-92
2022/06/21 06:38:44;;;;;;;2.05;1.58;;;30.70;98.50;;;;;;5106555;28;20192;-93
2022/06/21 06:41:20;;;;;;;1.17;1.08;;;31.40;97.70;;;;;;5106580;28;20657;-93
2022/06/21 06:43:57;;;;;;;2.88;1.80;;;31.20;95.30;;;;;;5107216;28;20214;-92
2022/06/21 06:46:46;;;;;;;1.40;1.30;;;31.80;93.20;;;;;;5101812;28;21047;-92
2022/06/21 06:49:26;;;;;;;1.50;1.40;;;32.10;93.50;;;;;;5110074;28;20540;-92
2022/06/21 06:52:04;;;;;;;1.50;1.40;;;30.70;92.50;;;;;;5110585;28;20349;-91
2022/06/21 06:54:38;;;;;;;3.83;1.90;;;31.40;93.60;;;;;;5109353;28;20281;-92
2022/06/21 06:57:14;;;;;;;1.40;1.30;;;32.30;92.30;;;;;;5110575;28;20176;-94
2022/06/21 06:59:43;;;;;;;1.25;1.15;;;31.80;93.00;;;;;;5109446;28;20184;-91
2022/06/21 07:02:37;;;;;;;1.40;1.30;;;32.90;91.70;;;;;;5105796;28;20215;-90
2022/06/21 07:05:28;;;;;;;1.48;1.38;;;32.80;90.30;;;;;;5118995;27;20265;-91
2022/06/21 07:07:59;;;;;;;1.70;1.35;;;31.70;89.80;;;;;;5109422;28;20576;-93
2022/06/21 07:10:26;;;;;;;1.85;1.58;;;31.80;91.20;;;;;;5109761;28;20232;-91
2022/06/21 07:12:54;;;;;;;2.92;1.83;;;31.30;90.60;;;;;;5125861;27;20231;-86
2022/06/21 07:15:39;;;;;;;3.60;1.70;;;31.50;92.10;;;;;;5109525;27;20235;-91
2022/06/21 07:18:14;;;;;;;1.95;1.77;;;31.80;91.60;;;;;;5110034;28;20202;-92
2022/06/21 07:20:43;;;;;;;3.25;1.92;;;32.00;91.10;;;;;;5110936;28;20270;-92
2022/06/21 07:23:16;;;;;;;1.85;1.48;;;32.30;90.10;;;;;;5109515;28;20230;-92
2022/06/21 07:26:05;;;;;;;7.65;1.90;;;32.60;90.90;;;;;;5108404;28;20212;-91
2022/06/21 07:28:54;;;;;;;2.90;1.65;;;33.10;88.60;;;;;;5109318;28;20518;-92
2022/06/21 07:31:29;;;;;;;4.68;1.70;;;31.10;88.80;;;;;;5109340;28;20224;-88
2022/06/21 07:34:21;;;;;;;2.30;1.92;;;28.70;93.90;;;;;;5108305;28;20218;-91
2022/06/21 07:36:59;;;;;;;4.18;1.92;;;27.60;99.20;;;;;;5104208;28;21017;-88
2022/06/21 07:39:34;;;;;;;4.57;1.80;;;29.30;95.40;;;;;;5109551;28;20617;-88
2022/06/21 07:42:27;;;;;;;1.85;1.75;;;30.40;92.70;;;;;;5109371;28;20237;-86
2022/06/21 07:45:00;;;;;;;2.10;1.80;;;28.50;94.00;;;;;;5098691;28;20208;-90
2022/06/21 07:47:41;;;;;;;1.60;1.35;;;26.20;97.70;;;;;;5108961;28;20220;-89
2022/06/21 07:50:25;;;;;;;1.70;1.40;;;23.60;99.90;;;;;;5109545;27;20348;-89
2022/06/21 07:52:58;;;;;;;1.63;1.52;;;22.90;99.90;;;;;;5108988;27;20226;-89
2022/06/21 07:55:47;;;;;;;3.92;2.00;;;22.60;99.90;;;;;;5123929;27;20216;-89
2022/06/21 07:58:25;;;;;;;2.75;2.00;;;24.50;99.90;;;;;;5124777;27;20297;-90
2022/06/21 08:06:42;;;;;;;1.85;1.70;;;25.20;99.90;;;;;;5108668;28;20298;-89
2022/06/21 08:09:40;;;;;;;2.85;1.77;;;26.80;99.60;;;;;;5108290;28;20551;-91
2022/06/21 08:12:08;;;;;;;3.47;1.95;;;28.60;96.00;;;;;;5107577;27;20241;-88
2022/06/21 08:14:34;;;;;;;2.58;1.95;;;29.80;95.70;;;;;;5107373;28;21099;-89
2022/06/21 08:17:24;;;;;;;3.05;1.40;;;30.10;94.00;;;;;;5108566;27;20218;-88
2022/06/21 08:20:02;;;;;;;6.00;2.20;;;30.20;92.70;;;;;;5108034;28;20765;-89
2022/06/21 08:22:31;;;;;;;1.63;1.30;;;29.00;93.00;;;;;;5108240;28;20249;-89
2022/06/21 08:25:03;;;;;;;2.00;1.70;;;27.80;95.60;;;;;;5106938;28;20327;-89
2022/06/21 08:27:37;;;;;;;5.35;2.15;;;27.00;97.00;;;;;;5107211;27;20325;-89
2022/06/21 08:30:16;;;;;;;3.50;1.55;;;25.80;99.90;;;;;;5108519;28;20171;-88
2022/06/21 08:32:46;;;;;;;2.78;1.50;;;25.00;99.90;;;;;;5107704;28;20198;-90
2022/06/21 08:35:25;;;;;;;1.95;1.63;;;26.10;99.90;;;;;;5107701;28;20243;-92
2022/06/21 08:38:23;;;;;;;3.17;1.83;;;27.00;99.90;;;;;;5107813;27;20219;-94
2022/06/21 08:41:51;;;;;;;6.03;1.85;;;26.30;99.90;;;;;;5123410;27;20220;-94
2022/06/21 08:44:39;;;;;;;2.25;1.80;;;25.50;99.90;;;;;;5108138;28;20552;-94
2022/06/21 08:47:20;;;;;;;4.75;1.98;;;26.50;99.90;;;;;;5074805;28;20673;-92
2022/06/21 08:50:08;;;;;;;3.45;1.90;;;25.40;99.90;;;;;;5123481;27;20630;-90
2022/06/21 08:53:13;;;;;;;2.33;1.83;;;24.90;99.90;;;;;;5112952;27;20223;-91
2022/06/21 08:55:49;;;;;;;2.70;2.33;;;23.90;99.90;;;;;;5075604;28;20224;-92
2022/06/21 08:58:32;;;;;;;2.47;2.28;;;25.20;99.90;;;;;;5107035;28;20614;-90
2022/06/21 09:01:07;;;;;;;2.58;1.90;;;25.60;99.90;;;;;;5107436;28;20212;-94
2022/06/21 09:04:07;;;;;;;7.15;2.60;;;26.30;99.90;;;;;;5105899;28;20219;-92
2022/06/21 09:06:59;;;;;;;4.60;1.95;;;26.20;99.90;;;;;;5092813;27;20215;-94
2022/06/21 09:09:31;;;;;;;2.05;1.85;;;25.50;99.90;;;;;;5104725;28;20270;-90
2022/06/21 09:12:00;;;;;;;3.85;2.13;;;25.10;99.90;;;;;;5122417;27;20191;-92
2022/06/21 09:14:56;;;;;;;4.13;2.15;;;26.90;99.90;;;;;;5106687;28;20227;-92
2022/06/21 09:17:40;;;;;;;3.20;2.00;;;27.50;98.70;;;;;;5106073;28;20385;-93
2022/06/21 09:20:51;;;;;;;2.25;1.85;;;27.80;96.40;;;;;;5106791;27;20235;-89
2022/06/21 09:23:36;;;;;;;2.05;1.67;;;28.40;97.20;;;;;;5103401;28;20323;-93
2022/06/21 09:26:11;;;;;;;3.20;1.70;;;29.80;94.60;;;;;;5108692;28;20406;-89
2022/06/21 09:28:49;;;;;;;3.42;1.88;;;29.90;93.70;;;;;;5110125;28;20230;-92
2022/06/21 09:31:36;;;;;;;2.13;1.50;;;29.50;93.20;;;;;;5108396;28;20215;-90
2022/06/21 09:34:25;;;;;;;2.03;1.83;;;30.30;93.30;;;;;;5107193;28;20215;-93
2022/06/21 09:37:05;;;;;;;1.20;1.10;;;31.20;94.40;;;;;;5105977;28;21020;-93
2022/06/21 09:39:41;;;;;;;3.35;1.77;;;31.30;94.90;;;;;;5106487;28;20295;-93
2022/06/21 09:42:31;;;;;;;1.45;1.35;;;29.00;95.60;;;;;;5107177;28;20190;-89
2022/06/21 09:45:06;;;;;;;4.13;1.63;;;26.90;98.10;;;;;;5106543;28;20221;-90
2022/06/21 09:47:44;;;;;;;1.35;1.25;;;27.10;99.90;;;;;;5107330;28;20227;-91
2022/06/21 09:50:30;;;;;;;1.73;1.42;;;27.60;99.60;;;;;;5105768;28;20303;-89
2022/06/21 09:53:10;;;;;;;4.70;2.08;;;26.20;99.90;;;;;;5106756;28;20227;-88
2022/06/21 09:55:58;;;;;;;3.67;2.10;;;24.60;99.90;;;;;;5107410;28;20776;-93
2022/06/21 09:58:31;;;;;;;3.95;2.00;;;25.20;99.90;;;;;;5107480;28;20216;-92
2022/06/21 10:01:09;;;;;;;1.95;1.60;;;26.20;99.90;;;;;;5106726;28;20216;-94
2022/06/21 10:04:01;;;;;;;3.97;1.88;;;25.60;99.90;;;;;;5105085;28;20710;-90
2022/06/21 10:06:35;;;;;;;11.20;2.05;;;24.70;99.90;;;;;;5107039;28;20222;-92
2022/06/21 10:09:25;;;;;;;3.83;1.70;;;25.40;99.90;;;;;;5106585;28;20749;-90
2022/06/21 10:12:18;;;;;;;2.90;1.52;;;26.60;99.90;;;;;;5106509;28;20210;-95
2022/06/21 10:15:17;;;;;;;2.38;1.50;;;28.50;98.00;;;;;;5105942;28;20204;-93
2022/06/21 10:17:56;;;;;;;3.15;1.83;;;29.00;95.40;;;;;;5105449;28;20216;-93
2022/06/21 10:20:32;;;;;;;3.90;1.60;;;28.80;95.80;;;;;;5106101;28;20265;-92
2022/06/21 10:23:09;;;;;;;4.72;1.77;;;28.70;95.40;;;;;;5104503;28;21094;-92
2022/06/21 10:25:47;;;;;;;2.08;1.55;;;28.10;94.90;;;;;;5121688;28;20230;-95
2022/06/21 10:28:38;;;;;;;3.78;1.98;;;27.20;97.50;;;;;;5105535;28;20250;-92
2022/06/21 10:31:18;;;;;;;2.33;1.58;;;25.90;99.10;;;;;;5104850;28;20219;-94
2022/06/21 10:33:47;;;;;;;1.40;1.25;;;24.90;99.90;;;;;;5120939;28;20232;-94
2022/06/21 10:36:31;;;;;;;2.28;1.17;;;25.20;99.90;;;;;;5106395;28;20192;-91
2022/06/21 10:39:21;;;;;;;2.53;1.42;;;25.20;99.80;;;;;;5105790;28;20282;-92
2022/06/21 10:42:47;;;;;;;1.30;1.15;;;25.90;99.20;;;;;;5105499;28;20207;-94
2022/06/21 10:45:39;;;;;;;3.53;1.60;;;26.70;99.20;;;;;;5023354;28;20346;-91
2022/06/21 10:48:17;;;;;;;1.48;1.38;;;27.10;97.20;;;;;;5021858;28;20214;-93
2022/06/21 10:51:07;;;;;;;2.35;1.42;;;27.00;97.70;;;;;;5107860;28;20222;-92
2022/06/21 10:53:52;;;;;;;1.58;1.30;;;26.80;97.00;;;;;;5083398;28;20258;-95
2022/06/21 11:02:57;;;;;;;1.27;1.00;;;27.50;95.10;;;;;;5085549;28;20204;-94
2022/06/21 11:05:53;;;;;;;2.55;1.20;;;26.60;98.00;;;;;;5103223;28;20321;-90
2022/06/21 11:08:21;;;;;;;2.83;1.52;;;27.40;97.80;;;;;;5093384;28;20225;-91
2022/06/21 11:10:53;;;;;;;1.40;1.30;;;27.30;97.40;;;;;;5084384;28;20232;-88
2022/06/21 11:13:22;;;;;;;2.70;1.30;;;26.40;96.90;;;;;;5095699;28;21009;-87
2022/06/21 11:15:56;;;;;;;3.85;1.70;;;26.30;96.80;;;;;;5104789;28;20219;-88
2022/06/21 11:18:53;;;;;;;1.70;1.60;;;27.00;98.90;;;;;;5102309;28;20636;-93
2022/06/21 11:21:28;;;;;;;1.60;1.50;;;27.30;96.60;;;;;;5084019;28;20269;-93
2022/06/21 11:24:13;;;;;;;1.05;1.00;;;26.70;97.80;;;;;;5085675;28;20295;-92
2022/06/21 11:26:51;;;;;;;2.10;1.00;;;26.50;96.20;;;;;;5083618;28;20268;-92
2022/06/21 11:29:37;;;;;;;1.40;1.20;;;26.40;97.30;;;;;;5084031;28;20242;-93
2022/06/21 11:32:15;;;;;;;1.83;1.73;;;26.80;97.10;;;;;;5086027;28;20219;-95
2022/06/21 11:34:59;;;;;;;1.67;1.58;;;25.90;99.90;;;;;;5086861;28;20216;-87
2022/06/21 11:38:03;;;;;;;1.80;1.60;;;25.80;99.90;;;;;;5086574;28;20217;-92
2022/06/21 11:40:35;;;;;;;2.15;1.20;;;26.00;99.90;;;;;;5088466;28;20208;-91
2022/06/21 11:43:03;;;;;;;1.30;1.17;;;26.20;99.90;;;;;;5087718;28;20236;-90
2022/06/21 11:45:50;;;;;;;1.50;1.40;;;26.20;99.90;;;;;;5063118;28;20810;-91
2022/06/21 11:48:39;;;;;;;7.85;1.83;;;25.70;99.90;;;;;;5088403;28;20319;-92
2022/06/21 11:51:42;;;;;;;1.25;1.13;;;25.50;99.90;;;;;;5088661;28;20236;-93
2022/06/21 11:54:13;;;;;;;1.60;1.42;;;24.90;99.90;;;;;;5054681;28;20196;-92
2022/06/21 11:57:09;;;;;;;2.63;1.73;;;25.10;99.90;;;;;;5089338;28;20183;-91
2022/06/21 11:59:37;;;;;;;1.85;1.40;;;25.70;99.90;;;;;;5088555;28;20213;-91
2022/06/21 12:02:16;;;;;;;1.90;1.80;;;25.60;99.90;;;;;;5087241;28;20321;-93
2022/06/21 12:04:58;;;;;;;3.38;1.60;;;25.60;99.90;;;;;;5077404;28;20280;-91
2022/06/21 12:07:56;;;;;;;2.80;1.52;;;25.60;99.90;;;;;;5087993;28;20227;-93
2022/06/21 12:10:51;;;;;;;4.30;1.52;;;25.20;99.90;;;;;;5086778;28;20238;-93
2022/06/21 12:13:41;;;;;;;2.90;1.75;;;25.00;99.90;;;;;;5086894;28;20231;-93
2022/06/21 12:16:34;;;;;;;1.33;1.23;;;24.80;99.90;;;;;;5088138;28;20240;-93
2022/06/21 12:19:07;;;;;;;1.27;1.17;;;23.60;99.90;;;;;;5082983;28;20274;-92
2022/06/21 12:21:40;;;;;;;4.53;1.77;;;23.40;99.90;;;;;;5084295;28;20215;-86
2022/06/21 12:24:14;;;;;;;2.38;1.50;;;23.50;99.90;;;;;;5107575;28;20241;-90
2022/06/21 12:26:42;;;;;;;1.67;1.48;;;23.20;99.90;;;;;;5087257;28;20188;-92
2022/06/21 12:29:28;;;;;;;5.18;1.60;;;23.20;99.90;;;;;;5087709;28;20289;-92
2022/06/21 12:32:00;;;;;;;4.22;1.50;;;23.20;99.90;;;;;;5087720;28;20311;-93
2022/06/21 12:34:48;;;;;;;1.20;1.10;;;23.00;99.90;;;;;;5098484;28;20261;-92
2022/06/21 12:37:20;;;;;;;2.28;1.38;;;22.80;99.90;;;;;;5096683;28;20327;-91
2022/06/21 12:40:04;;;;;;;1.30;1.20;;;22.40;99.90;;;;;;5081820;28;20848;-91
2022/06/21 12:43:04;;;;;;;1.92;1.40;;;22.40;99.90;;;;;;5087704;28;20219;-93
2022/06/21 12:45:50;;;;;;;1.35;1.25;;;22.60;99.90;;;;;;5091629;28;20235;-90
2022/06/21 12:48:25;;;;;;;3.20;1.15;;;23.00;99.90;;;;;;5124134;27;20211;-91
2022/06/21 12:51:11;;;;;;;1.83;1.30;;;23.20;99.90;;;;;;5107571;28;21133;-90
2022/06/21 12:53:49;;;;;;;2.22;1.38;;;22.80;99.90;;;;;;5087156;28;20212;-91
2022/06/21 12:56:15;;;;;;;1.30;1.20;;;22.90;99.90;;;;;;5087361;28;20223;-90
2022/06/21 12:59:06;;;;;;;1.73;1.50;;;22.80;99.90;;;;;;5117383;27;20224;-87
2022/06/21 13:01:46;;;;;;;1.30;0.98;;;22.80;99.90;;;;;;5107111;28;20227;-91
2022/06/21 13:04:24;;;;;;;3.15;1.30;;;22.60;99.90;;;;;;5107643;28;20679;-89
2022/06/21 13:07:22;;;;;;;3.25;1.58;;;22.70;99.90;;;;;;5107558;28;20411;-90
2022/06/21 13:10:15;;;;;;;2.50;1.30;;;22.20;99.90;;;;;;5103173;28;20251;-89
2022/06/21 13:13:18;;;;;;;3.72;1.75;;;21.80;99.90;;;;;;5107925;28;20298;-90
2022/06/21 13:15:55;;;;;;;1.27;1.20;;;21.80;99.90;;;;;;5086219;28;21130;-91
2022/06/21 13:18:30;;;;;;;3.33;1.40;;;21.10;99.90;;;;;;5107627;28;20219;-90
2022/06/21 13:21:06;;;;;;;1.53;1.43;;;21.00;99.90;;;;;;5107168;28;20176;-91
2022/06/21 13:23:43;;;;;;;1.67;1.58;;;21.00;99.90;;;;;;5106638;28;20233;-93
2022/06/21 13:26:12;;;;;;;1.37;1.27;;;21.00;99.90;;;;;;5105794;28;20215;-93
2022/06/21 13:29:05;;;;;;;1.67;1.50;;;21.30;99.90;;;;;;5107187;28;20596;-92
2022/06/21 13:31:40;;;;;;;3.47;1.73;;;21.40;99.90;;;;;;5107203;27;20574;-89
2022/06/21 13:34:36;;;;;;;1.67;1.57;;;21.20;99.90;;;;;;5106548;28;20260;-90
2022/06/21 13:37:29;;;;;;;1.08;1.08;;;21.10;99.90;;;;;;5105722;28;20215;-90
2022/06/21 13:40:08;;;;;;;1.42;1.30;;;21.00;99.90;;;;;;5105758;27;20299;-87
2022/06/21 13:42:43;;;;;;;2.70;1.73;;;20.80;99.90;;;;;;5105940;28;20552;-88
2022/06/21 13:45:30;;;;;;;2.87;1.50;;;20.80;99.90;;;;;;5106516;28;20321;-90
2022/06/21 13:48:03;;;;;;;3.43;1.93;;;20.70;99.90;;;;;;5106773;28;20200;-90
2022/06/21 13:50:51;;;;;;;1.67;1.57;;;20.60;99.90;;;;;;5102878;28;20216;-93
2022/06/21 13:53:48;;;;;;;1.70;1.60;;;20.90;99.90;;;;;;5106850;28;20243;-86
2022/06/21 13:56:28;;;;;;;3.17;1.80;;;20.90;99.90;;;;;;5106758;28;20244;-94
2022/06/21 13:58:59;;;;;;;2.83;1.30;;;20.80;99.90;;;;;;5106229;28;20283;-94